Welcome to Northern Hawkes Bay. New Zealand.
PWS Header
      nz Flag



Hit Counter


W3C Valid W3C Valid logo


    Wairoa

Select any of the Stations below to visit their websites.










Historic Data from Weather Underground
Select the location of interest below. Wairoa is the default. Please have patience, this Data is slow to load in.
Northern Hawkes Bay Historical Data
Daily Summary for February 4, 2017 Units:  English    Metric   Both
« Previous Day
Next Day »
Daily Weekly Monthly Yearly Custom
  High: Low: Average:
Temperature: 77.2 °F 55 °F 66.6 °F
Dew Point: 60.3 °F 44.1 °F 54.9 °F
Humidity: 97% 35% 69%
Wind Speed: 9.2mph 0mph 3.4mph
Wind Gust: 15.2mph - -
Wind- - SW
Pressure: 30 in 29.9 in -
Precipitation: 0 in    
Historical Graphs
 
 
Tabular Data for February 4, 2017
Time Temperature Dew Point Pressure Wind Wind Speed Wind Gust Humidity Rainfall Rate (Hourly) solar
00:00 62.1 °F 56.5 °F 29.9 in NNW 1.6 mph 3.1 mph 82% 0 in 0 W/m2
00:05 61.9 °F 56.7 °F 29.9 in North 1.6 mph 3.8 mph 83% 0 in 0 W/m2
00:10 61.9 °F 56.7 °F 29.9 in Calm   3.8 mph 83% 0 in 0 W/m2
00:15 61.7 °F 56.5 °F 29.9 in Calm   3.1 mph 83% 0 in 0 W/m2
00:20 61.3 °F 56.1 °F 29.9 in Calm   1.6 mph 83% 0 in 0 W/m2
00:25 61.2 °F 55.9 °F 29.9 in Calm   0.7 mph 83% 0 in 0 W/m2
00:30 61 °F 56.1 °F 29.9 in NW 0.7 mph 1.6 mph 84% 0 in 0 W/m2
00:35 60.8 °F 55.9 °F 29.9 in NW 0.7 mph 2.2 mph 84% 0 in 0 W/m2
00:40 60.6 °F 56.1 °F 29.9 in NW 2.2 mph 3.1 mph 85% 0 in 0 W/m2
00:45 60.6 °F 56.5 °F 29.9 in NW 2.2 mph 3.8 mph 86% 0 in 0 W/m2
00:50 60.8 °F 56.7 °F 29.9 in NNW 1.6 mph 3.8 mph 86% 0 in 0 W/m2
00:55 60.6 °F 56.5 °F 29.9 in NNW 1.6 mph 3.8 mph 86% 0 in 0 W/m2
01:00 60.6 °F 56.5 °F 29.9 in NW 0.7 mph 3.1 mph 86% 0 in 0 W/m2
01:05 60.6 °F 56.5 °F 29.9 in NNW 0.7 mph 3.1 mph 86% 0 in 0 W/m2
01:10 60.6 °F 56.5 °F 29.9 in North 1.6 mph 3.1 mph 86% 0 in 0 W/m2
01:15 60.6 °F 56.5 °F 29.9 in North 1.6 mph 3.1 mph 86% 0 in 0 W/m2
01:20 60.4 °F 56.1 °F 29.9 in NNW 0.7 mph 3.1 mph 86% 0 in 0 W/m2
01:25 60.3 °F 56.5 °F 29.9 in Calm   3.1 mph 87% 0 in 0 W/m2
01:30 59.9 °F 55.8 °F 29.9 in NW 0.7 mph 2.2 mph 86% 0 in 0 W/m2
01:35 59.5 °F 55.4 °F 29.9 in Calm   2.2 mph 86% 0 in 0 W/m2
01:40 59.5 °F 55.8 °F 29.9 in NNW 0.7 mph 4.5 mph 87% 0 in 0 W/m2
01:45 59.7 °F 56.1 °F 29.9 in NNW 3.1 mph 5.4 mph 88% 0 in 0 W/m2
01:50 59.9 °F 56.5 °F 29.9 in NNW 3.8 mph 6 mph 88% 0 in 0 W/m2
01:55 60.1 °F 56.5 °F 29.9 in NNW 1.6 mph 6 mph 88% 0 in 0 W/m2
02:00 59.9 °F 55.9 °F 29.9 in Calm   3.8 mph 87% 0 in 0 W/m2
02:05 59.7 °F 55.9 °F 29.9 in Calm   3.1 mph 87% 0 in 0 W/m2
02:10 59.5 °F 55.8 °F 29.9 in North 2.2 mph 3.8 mph 87% 0 in 0 W/m2
02:15 59.5 °F 55.9 °F 29.9 in NNW 2.2 mph 4.5 mph 88% 0 in 0 W/m2
02:20 59.4 °F 55.8 °F 29.9 in NNW 3.1 mph 4.5 mph 88% 0 in 0 W/m2
02:25 59.7 °F 56.1 °F 29.9 in NNW 1.6 mph 5.4 mph 88% 0 in 0 W/m2
02:30 59.5 °F 55.9 °F 29.9 in NW 2.2 mph 5.4 mph 88% 0 in 0 W/m2
02:35 59.5 °F 55.9 °F 29.9 in NW 0.7 mph 4.5 mph 88% 0 in 0 W/m2
02:40 59.4 °F 55.8 °F 29.9 in Calm   4.5 mph 88% 0 in 0 W/m2
02:45 59.2 °F 55.6 °F 29.9 in North 0.7 mph 2.2 mph 88% 0 in 0 W/m2
02:50 59.4 °F 56.1 °F 29.9 in North 1.6 mph 3.8 mph 89% 0 in 0 W/m2
02:55 59.4 °F 56.1 °F 29.9 in North 0.7 mph 3.8 mph 89% 0 in 0 W/m2
03:00 59.4 °F 56.1 °F 29.9 in North 1.6 mph 3.8 mph 89% 0 in 0 W/m2
03:05 59.4 °F 56.1 °F 29.9 in North 0.7 mph 3.8 mph 89% 0 in 0 W/m2
03:10 59.2 °F 55.9 °F 29.9 in NNW 1.6 mph 3.8 mph 89% 0 in 0 W/m2
03:15 59 °F 55.8 °F 29.9 in NW 2.2 mph 3.8 mph 89% 0 in 0 W/m2
03:20 58.8 °F 55.9 °F 29.9 in NW 1.6 mph 3.1 mph 90% 0 in 0 W/m2
03:25 58.5 °F 55.6 °F 29.9 in NW 1.6 mph 3.1 mph 90% 0 in 0 W/m2
03:30 58.1 °F 55.2 °F 29.9 in NW 3.8 mph 4.5 mph 90% 0 in 0 W/m2
03:35 57.7 °F 55 °F 29.9 in NW 3.1 mph 4.5 mph 91% 0 in 0 W/m2
03:40 57.7 °F 55.4 °F 29.9 in NW 1.6 mph 4.5 mph 92% 0 in 0 W/m2
03:45 57.6 °F 55.2 °F 29.9 in NW 1.6 mph 3.8 mph 92% 0 in 0 W/m2
03:50 57.4 °F 55 °F 29.9 in NW 2.2 mph 4.5 mph 92% 0 in 0 W/m2
03:55 57.2 °F 55.2 °F 29.9 in NW 3.1 mph 4.5 mph 93% 0 in 0 W/m2
04:00 57 °F 55.6 °F 29.9 in NNW 1.6 mph 3.8 mph 95% 0 in 0 W/m2
04:05 56.8 °F 55.4 °F 29.9 in Calm   3.8 mph 95% 0 in 0 W/m2
04:23 56.7 °F 55.6 °F 29.9 in NNW 1.6 mph 3.8 mph 96% 0 in 0 W/m2
04:28 56.7 °F 55.6 °F 29.9 in NNW 2.2 mph 3.8 mph 96% 0 in 0 W/m2
04:33 56.7 °F 55.6 °F 29.9 in NNW 2.2 mph 3.8 mph 96% 0 in 0 W/m2
04:38 56.5 °F 55.4 °F 29.9 in NW 3.8 mph 5.4 mph 96% 0 in 0 W/m2
04:43 56.3 °F 55.2 °F 29.9 in NW 3.1 mph 5.4 mph 96% 0 in 0 W/m2
04:48 56.3 °F 55.2 °F 29.9 in NW 1.6 mph 4.5 mph 96% 0 in 0 W/m2
04:53 56.1 °F 55 °F 29.9 in NW 0.7 mph 4.5 mph 96% 0 in 0 W/m2
04:58 55.9 °F 54.9 °F 29.9 in NW 3.1 mph 3.8 mph 96% 0 in 0 W/m2
05:03 55.9 °F 54.9 °F 29.9 in NW 3.1 mph 4.5 mph 96% 0 in 0 W/m2
05:08 55.8 °F 54.7 °F 29.9 in NW 3.8 mph 4.5 mph 96% 0 in 0 W/m2
05:13 55.8 °F 54.7 °F 29.9 in NW 3.1 mph 5.4 mph 96% 0 in 0 W/m2
05:18 55.8 °F 54.7 °F 29.9 in NNW 3.1 mph 5.4 mph 96% 0 in 0 W/m2
05:23 55.9 °F 55 °F 29.9 in NW 4.5 mph 6 mph 97% 0 in 0 W/m2
05:28 56.1 °F 55.2 °F 29.9 in NW 3.8 mph 6.9 mph 97% 0 in 0 W/m2
05:33 56.1 °F 55.2 °F 29.9 in NNW 3.8 mph 6.9 mph 97% 0 in 0 W/m2
05:38 56.1 °F 55.2 °F 29.9 in NNW 2.2 mph 6 mph 97% 0 in 0 W/m2
05:43 56.1 °F 55.2 °F 29.9 in NNW 2.2 mph 5.4 mph 97% 0 in 0 W/m2
05:48 56.1 °F 55.2 °F 29.9 in NNW 2.2 mph 5.4 mph 97% 0 in 0 W/m2
05:53 56.1 °F 55.2 °F 29.9 in NNW 2.2 mph 4.5 mph 97% 0 in 0 W/m2
05:55 56.1 °F 55.2 °F 29.9 in NNW 3.1 mph 4.5 mph 97% 0 in 0 W/m2
06:00 55.9 °F 55 °F 29.9 in NW 1.6 mph 4.5 mph 97% 0 in 0 W/m2
06:05 55.8 °F 54.9 °F 29.9 in NNW 1.6 mph 3.8 mph 97% 0 in 0 W/m2
06:10 55.6 °F 54.9 °F 29.9 in North 3.1 mph 4.5 mph 97% 0 in 0 W/m2
06:15 55.6 °F 54.9 °F 29.9 in NNW 4.5 mph 6.9 mph 97% 0 in 0 W/m2
06:20 55.6 °F 54.9 °F 29.9 in NNW 3.8 mph 6.9 mph 97% 0 in 0 W/m2
06:25 55.6 °F 54.9 °F 29.9 in NW 3.8 mph 6.9 mph 97% 0 in 1 W/m2
06:30 55.4 °F 54.7 °F 29.9 in NW 2.2 mph 6.9 mph 97% 0 in 3 W/m2
06:35 55 °F 54.1 °F 29.9 in NNW 0.7 mph 6 mph 97% 0 in 6 W/m2
06:40 55 °F 54.1 °F 29.9 in NW 3.1 mph 6 mph 97% 0 in 11 W/m2
06:45 55.2 °F 54.3 °F 29.9 in WNW 3.8 mph 5.4 mph 97% 0 in 14 W/m2
06:50 55.2 °F 54.3 °F 29.9 in WNW 2.2 mph 6 mph 97% 0 in 18 W/m2
06:55 55.2 °F 54.3 °F 29.9 in NW 2.2 mph 6 mph 97% 0 in 22 W/m2
07:00 55.2 °F 54.3 °F 29.9 in NNW 4.5 mph 6 mph 97% 0 in 29 W/m2
07:05 55.4 °F 54.7 °F 29.9 in NW 5.4 mph 6.9 mph 97% 0 in 36 W/m2
07:10 55.6 °F 54.9 °F 29.9 in NW 5.4 mph 7.6 mph 97% 0 in 26 W/m2
07:15 55.8 °F 54.9 °F 29.9 in NNW 4.5 mph 9.2 mph 97% 0 in 29 W/m2
07:20 55.9 °F 55 °F 29.9 in NNW 6 mph 9.2 mph 97% 0 in 85 W/m2
07:25 56.7 °F 55.6 °F 29.9 in NNW 5.4 mph 7.6 mph 96% 0 in 108 W/m2
07:30 57.6 °F 55.9 °F 29.9 in NNW 4.5 mph 8.3 mph 94% 0 in 111 W/m2
07:35 58.6 °F 55.9 °F 29.9 in NW 3.1 mph 8.3 mph 91% 0 in 102 W/m2
07:40 59.2 °F 55.6 °F 29.9 in NW 3.8 mph 8.3 mph 88% 0 in 134 W/m2
07:45 59.7 °F 55.6 °F 29.9 in NNW 4.5 mph 7.6 mph 86% 0 in 84 W/m2
07:50 59.7 °F 55.2 °F 29.9 in NNW 4.5 mph 7.6 mph 85% 0 in 143 W/m2
07:55 60.3 °F 55.8 °F 29.9 in NW 3.8 mph 7.6 mph 85% 0 in 159 W/m2
08:00 60.8 °F 55.6 °F 29.9 in NW 5.4 mph 9.8 mph 83% 0 in 183 W/m2
08:05 61.2 °F 55.6 °F 29.9 in NW 5.4 mph 10.7 mph 82% 0 in 175 W/m2
08:10 61.3 °F 55.8 °F 29.9 in NW 6.9 mph 10.7 mph 82% 0 in 174 W/m2
08:15 61.5 °F 55.9 °F 29.9 in NNW 5.4 mph 10.7 mph 82% 0 in 201 W/m2
08:20 62.6 °F 56.5 °F 29.9 in NNW 3.8 mph 10.7 mph 80% 0 in 230 W/m2
08:25 64 °F 56.3 °F 29.9 in NNW 1.6 mph 10.7 mph 76% 0 in 244 W/m2
08:30 64.9 °F 56.1 °F 29.9 in NW 3.1 mph 6.9 mph 73% 0 in 256 W/m2
08:35 65.7 °F 55.6 °F 29.9 in NW 4.5 mph 6.9 mph 70% 0 in 270 W/m2
08:40 66.4 °F 55.6 °F 29.9 in Calm   6.9 mph 68% 0 in 283 W/m2
08:45 68 °F 57 °F 29.9 in Calm   6 mph 68% 0 in 298 W/m2
08:50 68.7 °F 56.1 °F 29.9 in NNW 2.2 mph 3.8 mph 64% 0 in 313 W/m2
08:55 68.9 °F 55.4 °F 29.9 in NNW 2.2 mph 5.4 mph 62% 0 in 329 W/m2
09:00 69.6 °F 56.5 °F 29.9 in North 3.1 mph 5.4 mph 63% 0 in 352 W/m2
09:05 70 °F 54.1 °F 29.9 in North 3.1 mph 5.4 mph 57% 0 in 356 W/m2
09:10 70 °F 54.1 °F 29.9 in NNW 3.1 mph 5.4 mph 57% 0 in 339 W/m2
09:15 69.6 °F 53.2 °F 29.9 in NNW 2.2 mph 5.4 mph 56% 0 in 325 W/m2
09:20 69.6 °F 52.3 °F 29.9 in NNW 5.4 mph 7.6 mph 54% 0 in 374 W/m2
09:25 70.2 °F 52.9 °F 29.9 in North 4.5 mph 7.6 mph 54% 0 in 370 W/m2
09:30 70.7 °F 52.2 °F 29.9 in NNW 3.1 mph 7.6 mph 52% 0 in 451 W/m2
09:35 71.6 °F 51.4 °F 29.9 in NNW 3.1 mph 6.9 mph 49% 0 in 462 W/m2
09:40 72.3 °F 51.6 °F 29.9 in NNW 2.2 mph 6 mph 48% 0 in 365 W/m2
09:45 73.4 °F 51.4 °F 29.9 in NW 0.7 mph 4.5 mph 46% 0 in 419 W/m2
09:50 74.3 °F 52.2 °F 30 in Calm   3.1 mph 46% 0 in 514 W/m2
09:55 76.8 °F 53.2 °F 30 in ENE 0.7 mph 3.1 mph 44% 0 in 463 W/m2
10:00 77.2 °F 52.3 °F 30 in SSE 2.2 mph 5.4 mph 42% 0 in 512 W/m2
10:05 75.4 °F 50.2 °F 30 in South 5.4 mph 7.6 mph 41% 0 in 584 W/m2
10:10 74.3 °F 49.1 °F 30 in SSW 3.8 mph 7.6 mph 41% 0 in 578 W/m2
10:15 74.3 °F 46.4 °F 30 in SSW 4.5 mph 8.3 mph 37% 0 in 617 W/m2
10:20 74.3 °F 46.4 °F 30 in South 3.8 mph 8.3 mph 37% 0 in 637 W/m2
10:25 74.5 °F 47.8 °F 30 in South 4.5 mph 6.9 mph 39% 0 in 661 W/m2
10:30 73.9 °F 47.5 °F 30 in South 6.9 mph 9.8 mph 39% 0 in 680 W/m2
10:35 72.9 °F 49.1 °F 30 in South 3.1 mph 9.8 mph 43% 0 in 671 W/m2
10:40 73.4 °F 51.4 °F 30 in South 3.1 mph 9.8 mph 46% 0 in 716 W/m2
10:45 74.1 °F 51.4 °F 30 in South 3.1 mph 7.6 mph 45% 0 in 735 W/m2
10:50 74.1 °F 45.5 °F 30 in South 5.4 mph 8.3 mph 36% 0 in 735 W/m2
10:55 73.8 °F 46.6 °F 30 in South 4.5 mph 8.3 mph 38% 0 in 754 W/m2
11:00 73.8 °F 44.4 °F 30 in South 7.6 mph 9.2 mph 35% 0 in 799 W/m2
11:05 73.4 °F 44.1 °F 30 in South 6.9 mph 9.8 mph 35% 0 in 837 W/m2
11:10 73.9 °F 46 °F 30 in South 6 mph 9.8 mph 37% 0 in 856 W/m2
11:15 74.1 °F 46.9 °F 30 in South 3.8 mph 9.2 mph 38% 0 in 875 W/m2
11:20 75 °F 46.9 °F 29.9 in South 3.8 mph 9.2 mph 37% 0 in 896 W/m2
11:25 75.4 °F 46.6 °F 29.9 in South 4.5 mph 7.6 mph 36% 0 in 880 W/m2
11:30 74.3 °F 47.8 °F 29.9 in South 6.9 mph 10.7 mph 39% 0 in 913 W/m2
11:35 73.8 °F 46.6 °F 29.9 in South 6 mph 10.7 mph 38% 0 in 914 W/m2
11:40 73.8 °F 47.3 °F 30 in South 7.6 mph 10.7 mph 39% 0 in 920 W/m2
11:45 73.8 °F 48.6 °F 29.9 in SSW 3.8 mph 10.7 mph 41% 0 in 932 W/m2
11:50 73.9 °F 47.5 °F 29.9 in SSW 6 mph 11.4 mph 39% 0 in 941 W/m2
11:55 74.3 °F 49.8 °F 29.9 in South 7.6 mph 11.4 mph 42% 0 in 948 W/m2
12:00 74.1 °F 50.2 °F 29.9 in South 5.4 mph 10.7 mph 43% 0 in 957 W/m2
12:05 73.6 °F 51.6 °F 29.9 in South 8.3 mph 13 mph 46% 0 in 946 W/m2
12:10 73.4 °F 52 °F 29.9 in SSE 6.9 mph 13 mph 47% 0 in 954 W/m2
12:15 73.6 °F 51.1 °F 29.9 in SSE 7.6 mph 12.1 mph 45% 0 in 968 W/m2
12:20 73.8 °F 47.3 °F 29.9 in South 3.8 mph 12.1 mph 39% 0 in 972 W/m2
12:25 74.7 °F 52.5 °F 29.9 in South 5.4 mph 9.8 mph 46% 0 in 983 W/m2
12:30 75 °F 51.6 °F 29.9 in SSE 6 mph 9.8 mph 44% 0 in 974 W/m2
12:35 74.7 °F 53.1 °F 29.9 in SSE 7.6 mph 10.7 mph 47% 0 in 946 W/m2
12:40 73.9 °F 51.3 °F 29.9 in SSE 8.3 mph 13 mph 45% 0 in 949 W/m2
12:45 73.6 °F 49.1 °F 29.9 in South 5.4 mph 13 mph 42% 0 in 986 W/m2
12:50 73.9 °F 52 °F 29.9 in South 8.3 mph 13 mph 46% 0 in 982 W/m2
12:55 74.1 °F 49.6 °F 29.9 in South 3.8 mph 13 mph 42% 0 in 967 W/m2
13:00 74.3 °F 47.8 °F 29.9 in SSE 7.6 mph 12.1 mph 39% 0 in 975 W/m2
13:05 74.1 °F 46.2 °F 29.9 in SSE 3.8 mph 12.1 mph 37% 0 in 970 W/m2
13:10 74.3 °F 51.1 °F 29.9 in South 9.2 mph 13 mph 44% 0 in 969 W/m2
13:15 74.3 °F 51.6 °F 29.9 in South 5.4 mph 13 mph 45% 0 in 967 W/m2
13:20 74.1 °F 47.7 °F 29.9 in SE 4.5 mph 12.1 mph 39% 0 in 958 W/m2
13:25 74.3 °F 49.8 °F 29.9 in SE 5.4 mph 12.1 mph 42% 0 in 950 W/m2
13:30 74.3 °F 51.1 °F 29.9 in SE 4.5 mph 12.1 mph 44% 0 in 948 W/m2
13:35 75 °F 52.3 °F 29.9 in SE 5.4 mph 11.4 mph 45% 0 in 944 W/m2
13:40 74.1 °F 50.7 °F 29.9 in SSE 8.3 mph 11.4 mph 44% 0 in 934 W/m2
13:45 74.1 °F 50.2 °F 29.9 in SSE 2.2 mph 15.2 mph 43% 0 in 832 W/m2
13:50 75 °F 52.3 °F 29.9 in SE 6 mph 15.2 mph 45% 0 in 921 W/m2
13:55 75.6 °F 52.2 °F 29.9 in SE 3.8 mph 10.7 mph 44% 0 in 915 W/m2
14:00 75.9 °F 52 °F 29.9 in SE 2.2 mph 10.7 mph 43% 0 in 911 W/m2
14:05 76.1 °F 51.4 °F 29.9 in SSE 4.5 mph 9.8 mph 42% 0 in 905 W/m2
14:10 75 °F 55.2 °F 29.9 in SSE 6.9 mph 12.1 mph 50% 0 in 892 W/m2
14:15 73.9 °F 56.8 °F 29.9 in SSE 7.6 mph 12.1 mph 55% 0 in 880 W/m2
14:20 73.9 °F 54.7 °F 29.9 in SE 7.6 mph 12.1 mph 51% 0 in 870 W/m2
14:25 74.5 °F 54.7 °F 29.9 in SE 2.2 mph 9.8 mph 50% 0 in 864 W/m2
14:30 74.5 °F 56.8 °F 29.9 in SE 5.4 mph 10.7 mph 54% 0 in 858 W/m2
14:35 73.9 °F 57.7 °F 29.9 in SE 5.4 mph 11.4 mph 57% 0 in 842 W/m2
14:40 73.9 °F 57.7 °F 29.9 in SE 5.4 mph 11.4 mph 57% 0 in 836 W/m2
14:45 73.6 °F 56.8 °F 29.9 in SE 5.4 mph 11.4 mph 56% 0 in 829 W/m2
14:50 73.6 °F 57.4 °F 29.9 in SSE 6.9 mph 11.4 mph 57% 0 in 809 W/m2
14:55 73.9 °F 57.4 °F 29.9 in SSE 5.4 mph 11.4 mph 56% 0 in 804 W/m2
15:00 73.8 °F 58.1 °F 29.9 in SE 3.8 mph 13 mph 58% 0 in 791 W/m2
15:05 73.9 °F 57.7 °F 29.9 in SE 6.9 mph 13 mph 57% 0 in 673 W/m2
15:10 74.3 °F 58.1 °F 29.9 in SE 5.4 mph 12.1 mph 57% 0 in 770 W/m2
15:15 74.7 °F 58.5 °F 29.9 in SE 6.9 mph 13 mph 57% 0 in 690 W/m2
15:20 74.5 °F 57.4 °F 29.9 in ESE 6 mph 13 mph 55% 0 in 672 W/m2
15:25 73.9 °F 56.8 °F 29.9 in ESE 4.5 mph 13 mph 55% 0 in 514 W/m2
15:30 75 °F 58.8 °F 29.9 in SE 3.8 mph 11.4 mph 57% 0 in 725 W/m2
15:35 75.6 °F 58.3 °F 29.9 in SSE 4.5 mph 12.1 mph 55% 0 in 619 W/m2
15:40 74.8 °F 58.1 °F 29.9 in SSE 3.1 mph 12.1 mph 56% 0 in 474 W/m2
15:45 75.2 °F 57.4 °F 29.9 in SE 6 mph 12.1 mph 54% 0 in 672 W/m2
15:50 74.7 °F 57.6 °F 29.9 in SE 4.5 mph 12.1 mph 55% 0 in 588 W/m2
15:55 75.4 °F 55.9 °F 29.9 in SE 5.4 mph 12.1 mph 51% 0 in 548 W/m2
16:00 76.1 °F 56.1 °F 29.9 in SE 6 mph 13.6 mph 50% 0 in 652 W/m2
16:05 75.6 °F 57.4 °F 29.9 in SE 7.6 mph 13.6 mph 53% 0 in 475 W/m2
16:10 74.7 °F 57.6 °F 29.9 in SSE 1.6 mph 12.1 mph 55% 0 in 569 W/m2
16:15 76.1 °F 57.2 °F 29.9 in SSE 4.5 mph 12.1 mph 52% 0 in 532 W/m2
16:20 75.6 °F 56.1 °F 29.9 in SSE 4.5 mph 12.1 mph 51% 0 in 607 W/m2
16:25 75 °F 55.8 °F 29.9 in SSE 5.4 mph 13 mph 51% 0 in 589 W/m2
16:30 75.4 °F 57 °F 29.9 in SSE 5.4 mph 13 mph 53% 0 in 555 W/m2
16:35 75.4 °F 56.7 °F 29.9 in SSE 4.5 mph 10.7 mph 52% 0 in 571 W/m2
16:40 75.9 °F 58.1 °F 29.9 in SSE 3.8 mph 10.7 mph 54% 0 in 558 W/m2
16:45 76.6 °F 57.2 °F 29.9 in SE 4.5 mph 9.8 mph 51% 0 in 547 W/m2
16:50 75.7 °F 55.8 °F 29.9 in SE 6.9 mph 13 mph 50% 0 in 533 W/m2
16:55 75.9 °F 55.9 °F 29.9 in ESE 5.4 mph 13 mph 50% 0 in 518 W/m2
17:00 76.1 °F 55 °F 29.9 in SE 5.4 mph 10.7 mph 48% 0 in 502 W/m2
17:05 76.3 °F 55.2 °F 29.9 in SE 6.9 mph 11.4 mph 48% 0 in 489 W/m2
17:10 75.7 °F 56.5 °F 29.9 in SE 8.3 mph 11.4 mph 51% 0 in 471 W/m2
17:15 75.9 °F 57.6 °F 29.9 in SE 5.4 mph 11.4 mph 53% 0 in 459 W/m2
17:20 75.9 °F 57.6 °F 29.9 in SSE 3.8 mph 10.7 mph 53% 0 in 444 W/m2
17:25 75.9 °F 56.5 °F 29.9 in SE 6 mph 13 mph 51% 0 in 429 W/m2
17:30 75.7 °F 57.9 °F 29.9 in SE 3.1 mph 13 mph 54% 0 in 412 W/m2
17:35 74.8 °F 57.6 °F 29.9 in SSE 5.4 mph 14.5 mph 55% 0 in 397 W/m2
17:54 75.4 °F 58.6 °F 29.9 in SE 5.4 mph 13 mph 56% 0 in 339 W/m2
17:59 74.3 °F 58.6 °F 29.9 in SSE 4.5 mph 13 mph 58% 0 in 327 W/m2
18:04 74.1 °F 58.5 °F 29.9 in SSE 7.6 mph 13.6 mph 58% 0 in 315 W/m2
18:09 73.9 °F 58.6 °F 29.9 in SSE 4.5 mph 13.6 mph 59% 0 in 297 W/m2
18:14 74.3 °F 60.1 °F 29.9 in SSE 2.2 mph 12.1 mph 61% 0 in 287 W/m2
18:19 74.1 °F 60.3 °F 29.9 in South 6 mph 13 mph 62% 0 in 272 W/m2
18:24 74.3 °F 60.1 °F 29.9 in South 7.6 mph 13.6 mph 61% 0 in 255 W/m2
18:29 73.4 °F 58.3 °F 29.9 in South 5.4 mph 15.2 mph 59% 0 in 243 W/m2
18:34 73.6 °F 58.8 °F 29.9 in SSE 5.4 mph 15.2 mph 60% 0 in 230 W/m2
18:39 73.8 °F 58.6 °F 29.9 in SE 5.4 mph 12.1 mph 59% 0 in 215 W/m2
18:44 72.7 °F 58.5 °F 29.9 in SE 2.2 mph 12.1 mph 61% 0 in 98 W/m2
18:49 71.4 °F 58.3 °F 29.9 in SE 7.6 mph 13 mph 63% 0 in 75 W/m2
18:54 71.4 °F 58.3 °F 29.9 in SE 4.5 mph 14.5 mph 63% 0 in 97 W/m2
18:59 72 °F 58.3 °F 29.9 in SSE 8.3 mph 14.5 mph 62% 0 in 162 W/m2
19:04 71.8 °F 58.5 °F 29.9 in SSE 3.8 mph 13 mph 63% 0 in 55 W/m2
19:09 70.9 °F 57.2 °F 29.9 in ESE 6 mph 13 mph 62% 0 in 52 W/m2
19:14 71.1 °F 57.4 °F 30 in ESE 4.5 mph 9.2 mph 62% 0 in 43 W/m2
19:19 70.9 °F 57.2 °F 30 in ESE 6 mph 8.3 mph 62% 0 in 41 W/m2
19:24 70.5 °F 57.4 °F 30 in East 3.1 mph 7.6 mph 63% 0 in 38 W/m2
19:29 70.2 °F 56.7 °F 30 in ESE 3.8 mph 9.2 mph 62% 0 in 42 W/m2
19:35 70.5 °F 56.8 °F 30 in SE 4.5 mph 9.2 mph 62% 0 in 39 W/m2
19:40 70.3 °F 56.7 °F 30 in SE 4.5 mph 9.2 mph 62% 0 in 61 W/m2
19:45 70 °F 56.5 °F 30 in ESE 4.5 mph 10.7 mph 62% 0 in 30 W/m2
19:50 69.4 °F 56.3 °F 30 in ESE 4.5 mph 10.7 mph 63% 0 in 27 W/m2
19:55 69.1 °F 55.9 °F 30 in East 3.1 mph 9.2 mph 63% 0 in 23 W/m2
20:00 68.9 °F 55.8 °F 30 in ESE 3.8 mph 9.8 mph 63% 0 in 20 W/m2
20:05 68.7 °F 55.6 °F 30 in ESE 4.5 mph 9.8 mph 63% 0 in 15 W/m2
20:10 68.5 °F 55.9 °F 30 in ESE 2.2 mph 9.2 mph 64% 0 in 13 W/m2
20:15 68.4 °F 55.2 °F 30 in ESE 6 mph 11.4 mph 63% 0 in 9 W/m2
20:20 68.2 °F 55.6 °F 30 in ESE 4.5 mph 11.4 mph 64% 0 in 5 W/m2
20:25 68.2 °F 55.6 °F 30 in ESE 4.5 mph 9.8 mph 64% 0 in 3 W/m2
20:30 68 °F 55.8 °F 30 in ESE 3.8 mph 8.3 mph 65% 0 in 0 W/m2
20:35 67.8 °F 56.1 °F 30 in East 0.7 mph 7.6 mph 66% 0 in 0 W/m2
20:40 67.5 °F 56.1 °F 30 in Calm   4.5 mph 67% 0 in 0 W/m2
20:45 67.1 °F 56.1 °F 30 in Calm   3.1 mph 68% 0 in 0 W/m2
20:50 66.6 °F 55.8 °F 30 in Calm   3.1 mph 68% 0 in 0 W/m2
20:55 66.2 °F 55.8 °F 30 in WNW 1.6 mph 3.1 mph 69% 0 in 0 W/m2
21:00 66.2 °F 55.8 °F 30 in Calm   4.5 mph 69% 0 in 0 W/m2
21:05 66.2 °F 55.8 °F 30 in Calm   4.5 mph 69% 0 in 0 W/m2
21:10 65.8 °F 56.1 °F 30 in Calm   2.2 mph 71% 0 in 0 W/m2
21:15 65.5 °F 56.1 °F 30 in SW 0.7 mph 2.2 mph 72% 0 in 0 W/m2
21:20 65.1 °F 56.3 °F 30 in Calm   2.2 mph 73% 0 in 0 W/m2
21:25 64.9 °F 56.1 °F 30 in Calm   1.6 mph 73% 0 in 0 W/m2
21:30 64.6 °F 55.8 °F 30 in Calm   1.6 mph 73% 0 in 0 W/m2
21:35 64.2 °F 55.8 °F 30 in Calm   2.2 mph 74% 0 in 0 W/m2
21:40 63.9 °F 55.4 °F 30 in Calm   2.2 mph 74% 0 in 0 W/m2
21:45 63.7 °F 55.2 °F 30 in Calm   0.7 mph 74% 0 in 0 W/m2
21:50 63.3 °F 54.9 °F 30 in Calm     74% 0 in 0 W/m2
21:55 63.3 °F 55.2 °F 30 in Calm     75% 0 in 0 W/m2
22:00 63.3 °F 55.6 °F 30 in NNW 3.1 mph 4.5 mph 76% 0 in 0 W/m2
22:05 63 °F 55.8 °F 30 in Calm   4.5 mph 77% 0 in 0 W/m2
22:10 62.8 °F 55.8 °F 30 in NNE 0.7 mph 4.5 mph 78% 0 in 0 W/m2
22:15 62.8 °F 56.5 °F 30 in NE 1.6 mph 3.8 mph 80% 0 in 0 W/m2
22:20 62.8 °F 56.8 °F 30 in Calm   3.8 mph 81% 0 in 0 W/m2
22:25 62.8 °F 56.8 °F 30 in NE 0.7 mph 3.1 mph 81% 0 in 0 W/m2
22:30 62.8 °F 56.8 °F 30 in NNE 2.2 mph 3.1 mph 81% 0 in 0 W/m2
22:35 62.6 °F 56.7 °F 30 in Calm   3.8 mph 81% 0 in 0 W/m2
22:40 62.6 °F 56.7 °F 30 in North 2.2 mph 3.8 mph 81% 0 in 0 W/m2
22:45 62.4 °F 56.8 °F 30 in North 1.6 mph 3.8 mph 82% 0 in 0 W/m2
22:50 62.1 °F 56.5 °F 30 in Calm   3.8 mph 82% 0 in 0 W/m2
22:55 61.9 °F 56.3 °F 30 in NNE 0.7 mph 2.2 mph 82% 0 in 0 W/m2
23:00 61.7 °F 56.1 °F 30 in NW 2.2 mph 3.8 mph 82% 0 in 0 W/m2
23:05 61.5 °F 56.3 °F 30 in NW 2.2 mph 3.8 mph 83% 0 in 0 W/m2
23:10 61.3 °F 56.1 °F 30 in NW 1.6 mph 4.5 mph 83% 0 in 0 W/m2
23:15 61.2 °F 55.9 °F 30 in NW 2.2 mph 4.5 mph 83% 0 in 0 W/m2
23:20 61.2 °F 55.9 °F 30 in NNW 1.6 mph 4.5 mph 83% 0 in 0 W/m2
23:25 61.2 °F 55.9 °F 30 in NNW 2.2 mph 5.4 mph 83% 0 in 0 W/m2
23:30 61.2 °F 55.9 °F 30 in NNW 1.6 mph 5.4 mph 83% 0 in 0 W/m2
23:35 61 °F 55.8 °F 30 in North 1.6 mph 4.5 mph 83% 0 in 0 W/m2
23:40 60.8 °F 55.6 °F 30 in North 1.6 mph 3.1 mph 83% 0 in 0 W/m2
23:45 60.6 °F 55.8 °F 30 in NNW 0.7 mph 3.1 mph 84% 0 in 0 W/m2
23:50 60.4 °F 55.9 °F 30 in Calm   3.1 mph 85% 0 in 0 W/m2
23:55 60.3 °F 55.8 °F 30 in North 0.7 mph 2.2 mph 85% 0 in 0 W/m2
Northern Hawkes Bay. New Zealand Historic Data
Compliments of Weather Underground - 2.25 mb